sensor_id;sensor_type;location;lat;lon;timestamp;pressure;altitude;pressure_sealevel;temperature;humidity
61436;BME280;47304;47.456;19.160;2023-06-14T00:00:55;100004.95;;;14.72;63.53
61436;BME280;47304;47.456;19.160;2023-06-14T00:03:21;100000.67;;;14.67;63.99
61436;BME280;47304;47.456;19.160;2023-06-14T00:05:48;100002.84;;;14.63;64.00
61436;BME280;47304;47.456;19.160;2023-06-14T00:08:15;100004.31;;;14.60;64.22
61436;BME280;47304;47.456;19.160;2023-06-14T00:10:41;100003.84;;;14.59;64.59
61436;BME280;47304;47.456;19.160;2023-06-14T00:13:09;100007.21;;;14.57;64.67
61436;BME280;47304;47.456;19.160;2023-06-14T00:15:35;100009.36;;;14.56;64.82
61436;BME280;47304;47.456;19.160;2023-06-14T00:18:03;100004.30;;;14.54;64.63
61436;BME280;47304;47.456;19.160;2023-06-14T00:20:32;100004.89;;;14.50;64.69
61436;BME280;47304;47.456;19.160;2023-06-14T00:22:59;100006.70;;;14.48;64.69
61436;BME280;47304;47.456;19.160;2023-06-14T00:25:26;100013.34;;;14.43;64.86
61436;BME280;47304;47.456;19.160;2023-06-14T00:27:56;100011.66;;;14.39;65.05
61436;BME280;47304;47.456;19.160;2023-06-14T00:30:23;100015.26;;;14.36;65.05
61436;BME280;47304;47.456;19.160;2023-06-14T00:32:50;100019.03;;;14.32;65.44
61436;BME280;47304;47.456;19.160;2023-06-14T00:35:17;100019.48;;;14.28;65.38
61436;BME280;47304;47.456;19.160;2023-06-14T00:37:44;100019.75;;;14.24;65.57
61436;BME280;47304;47.456;19.160;2023-06-14T00:40:11;100018.89;;;14.23;65.87
61436;BME280;47304;47.456;19.160;2023-06-14T00:42:37;100016.13;;;14.20;65.92
61436;BME280;47304;47.456;19.160;2023-06-14T00:45:04;100011.77;;;14.17;65.94
61436;BME280;47304;47.456;19.160;2023-06-14T00:47:31;100010.06;;;14.15;66.16
61436;BME280;47304;47.456;19.160;2023-06-14T00:49:58;100014.20;;;14.11;66.01
61436;BME280;47304;47.456;19.160;2023-06-14T00:52:25;100015.13;;;14.09;65.94
61436;BME280;47304;47.456;19.160;2023-06-14T00:54:52;100011.33;;;14.06;66.07
61436;BME280;47304;47.456;19.160;2023-06-14T00:57:19;100015.77;;;14.03;66.12
61436;BME280;47304;47.456;19.160;2023-06-14T00:59:47;100014.62;;;13.99;66.45
61436;BME280;47304;47.456;19.160;2023-06-14T01:02:14;100013.81;;;13.95;66.57
61436;BME280;47304;47.456;19.160;2023-06-14T01:04:43;100009.30;;;13.92;66.61
61436;BME280;47304;47.456;19.160;2023-06-14T01:10:52;100011.95;;;13.82;66.84
61436;BME280;47304;47.456;19.160;2023-06-14T01:13:26;100006.58;;;13.78;67.28
61436;BME280;47304;47.456;19.160;2023-06-14T01:15:55;100005.92;;;13.75;67.31
61436;BME280;47304;47.456;19.160;2023-06-14T01:18:22;100006.48;;;13.74;67.53
61436;BME280;47304;47.456;19.160;2023-06-14T01:20:49;100004.60;;;13.71;67.50
61436;BME280;47304;47.456;19.160;2023-06-14T01:23:19;100003.06;;;13.68;67.76
61436;BME280;47304;47.456;19.160;2023-06-14T01:25:47;100006.14;;;13.64;67.96
61436;BME280;47304;47.456;19.160;2023-06-14T01:28:15;100005.28;;;13.63;68.23
61436;BME280;47304;47.456;19.160;2023-06-14T01:30:44;100003.91;;;13.61;68.16
61436;BME280;47304;47.456;19.160;2023-06-14T01:33:13;100006.02;;;13.61;68.32
61436;BME280;47304;47.456;19.160;2023-06-14T01:35:47;100011.13;;;13.60;68.26
61436;BME280;47304;47.456;19.160;2023-06-14T01:38:15;100013.79;;;13.60;68.60
61436;BME280;47304;47.456;19.160;2023-06-14T01:40:43;100009.42;;;13.58;68.73
61436;BME280;47304;47.456;19.160;2023-06-14T01:43:12;100009.23;;;13.58;68.73
61436;BME280;47304;47.456;19.160;2023-06-14T01:45:40;100010.86;;;13.56;68.57
61436;BME280;47304;47.456;19.160;2023-06-14T01:48:08;100006.85;;;13.54;68.69
61436;BME280;47304;47.456;19.160;2023-06-14T01:50:35;100009.52;;;13.52;68.76
61436;BME280;47304;47.456;19.160;2023-06-14T01:53:02;100016.40;;;13.51;68.77
61436;BME280;47304;47.456;19.160;2023-06-14T01:55:28;100018.19;;;13.50;69.02
61436;BME280;47304;47.456;19.160;2023-06-14T01:57:55;100017.85;;;13.49;69.11
61436;BME280;47304;47.456;19.160;2023-06-14T02:00:21;100021.04;;;13.48;68.98
61436;BME280;47304;47.456;19.160;2023-06-14T02:02:48;100023.71;;;13.46;68.86
61436;BME280;47304;47.456;19.160;2023-06-14T02:05:14;100028.34;;;13.43;68.85
61436;BME280;47304;47.456;19.160;2023-06-14T02:07:41;100028.02;;;13.40;69.04
61436;BME280;47304;47.456;19.160;2023-06-14T02:10:08;100026.98;;;13.38;69.22
61436;BME280;47304;47.456;19.160;2023-06-14T02:12:34;100032.11;;;13.37;69.17
61436;BME280;47304;47.456;19.160;2023-06-14T02:15:01;100030.92;;;13.34;69.23
61436;BME280;47304;47.456;19.160;2023-06-14T02:17:27;100035.90;;;13.32;69.31
61436;BME280;47304;47.456;19.160;2023-06-14T02:19:54;100038.72;;;13.30;69.30
61436;BME280;47304;47.456;19.160;2023-06-14T02:22:20;100037.36;;;13.28;69.48
61436;BME280;47304;47.456;19.160;2023-06-14T02:24:47;100034.94;;;13.25;69.49
61436;BME280;47304;47.456;19.160;2023-06-14T02:27:18;100033.43;;;13.20;69.36
61436;BME280;47304;47.456;19.160;2023-06-14T02:29:44;100027.90;;;13.15;69.40
61436;BME280;47304;47.456;19.160;2023-06-14T02:32:11;100028.15;;;13.10;69.82
61436;BME280;47304;47.456;19.160;2023-06-14T02:34:38;100028.04;;;13.06;69.76
61436;BME280;47304;47.456;19.160;2023-06-14T02:37:04;100025.77;;;13.05;69.78
61436;BME280;47304;47.456;19.160;2023-06-14T02:39:31;100027.21;;;13.03;69.95
61436;BME280;47304;47.456;19.160;2023-06-14T02:41:57;100028.13;;;13.01;69.74
61436;BME280;47304;47.456;19.160;2023-06-14T02:44:25;100029.20;;;13.00;70.24
61436;BME280;47304;47.456;19.160;2023-06-14T02:46:51;100023.04;;;12.99;70.18
61436;BME280;47304;47.456;19.160;2023-06-14T02:49:18;100026.56;;;13.00;70.20
61436;BME280;47304;47.456;19.160;2023-06-14T02:51:44;100016.20;;;12.99;70.31
61436;BME280;47304;47.456;19.160;2023-06-14T02:54:11;100020.04;;;13.00;70.40
61436;BME280;47304;47.456;19.160;2023-06-14T02:56:37;100018.64;;;12.99;70.49
61436;BME280;47304;47.456;19.160;2023-06-14T02:59:04;100020.41;;;12.99;70.46
61436;BME280;47304;47.456;19.160;2023-06-14T03:01:31;100023.94;;;12.99;70.32
61436;BME280;47304;47.456;19.160;2023-06-14T03:03:57;100023.95;;;12.98;70.30
61436;BME280;47304;47.456;19.160;2023-06-14T03:06:24;100019.08;;;12.95;70.74
61436;BME280;47304;47.456;19.160;2023-06-14T03:08:50;100021.06;;;12.92;70.68
61436;BME280;47304;47.456;19.160;2023-06-14T03:11:17;100020.89;;;12.91;70.74
61436;BME280;47304;47.456;19.160;2023-06-14T03:13:43;100023.89;;;12.90;70.93
61436;BME280;47304;47.456;19.160;2023-06-14T03:16:10;100022.54;;;12.86;70.84
61436;BME280;47304;47.456;19.160;2023-06-14T03:18:37;100021.54;;;12.84;71.24
61436;BME280;47304;47.456;19.160;2023-06-14T03:21:03;100022.24;;;12.84;71.51
61436;BME280;47304;47.456;19.160;2023-06-14T03:23:30;100020.31;;;12.84;71.51
61436;BME280;47304;47.456;19.160;2023-06-14T03:25:57;100018.68;;;12.86;71.38
61436;BME280;47304;47.456;19.160;2023-06-14T03:28:23;100019.71;;;12.88;71.57
61436;BME280;47304;47.456;19.160;2023-06-14T03:30:50;100021.09;;;12.90;71.78
61436;BME280;47304;47.456;19.160;2023-06-14T03:33:16;100019.98;;;12.93;71.86
61436;BME280;47304;47.456;19.160;2023-06-14T03:35:43;100024.86;;;12.96;71.83
61436;BME280;47304;47.456;19.160;2023-06-14T03:38:10;100028.67;;;13.00;71.79
61436;BME280;47304;47.456;19.160;2023-06-14T03:40:37;100026.16;;;13.03;71.93
61436;BME280;47304;47.456;19.160;2023-06-14T03:43:03;100029.98;;;13.05;71.91
61436;BME280;47304;47.456;19.160;2023-06-14T03:45:30;100026.97;;;13.07;72.11
61436;BME280;47304;47.456;19.160;2023-06-14T03:47:56;100033.27;;;13.09;72.16
61436;BME280;47304;47.456;19.160;2023-06-14T03:50:23;100034.78;;;13.13;72.48
61436;BME280;47304;47.456;19.160;2023-06-14T03:52:50;100037.40;;;13.15;72.29
61436;BME280;47304;47.456;19.160;2023-06-14T03:55:16;100037.69;;;13.18;72.47
61436;BME280;47304;47.456;19.160;2023-06-14T03:57:46;100035.88;;;13.21;72.77
61436;BME280;47304;47.456;19.160;2023-06-14T04:00:13;100037.74;;;13.26;72.86
61436;BME280;47304;47.456;19.160;2023-06-14T04:02:39;100042.09;;;13.29;72.75
61436;BME280;47304;47.456;19.160;2023-06-14T04:05:06;100041.52;;;13.32;72.52
61436;BME280;47304;47.456;19.160;2023-06-14T04:07:33;100038.45;;;13.36;72.55
61436;BME280;47304;47.456;19.160;2023-06-14T04:09:59;100039.27;;;13.41;72.52
61436;BME280;47304;47.456;19.160;2023-06-14T04:12:26;100040.95;;;13.46;72.42
61436;BME280;47304;47.456;19.160;2023-06-14T04:14:53;100048.10;;;13.50;72.18
61436;BME280;47304;47.456;19.160;2023-06-14T04:17:20;100048.03;;;13.53;72.36
61436;BME280;47304;47.456;19.160;2023-06-14T04:19:46;100050.08;;;13.57;72.10
61436;BME280;47304;47.456;19.160;2023-06-14T04:22:13;100050.20;;;13.61;71.92
61436;BME280;47304;47.456;19.160;2023-06-14T04:24:39;100053.64;;;13.65;71.93
61436;BME280;47304;47.456;19.160;2023-06-14T04:27:06;100055.30;;;13.70;71.87
61436;BME280;47304;47.456;19.160;2023-06-14T04:29:32;100056.59;;;13.77;71.62
61436;BME280;47304;47.456;19.160;2023-06-14T04:31:59;100056.15;;;13.82;71.63
61436;BME280;47304;47.456;19.160;2023-06-14T04:34:26;100059.59;;;13.86;71.61
61436;BME280;47304;47.456;19.160;2023-06-14T04:36:52;100060.17;;;13.93;71.64
61436;BME280;47304;47.456;19.160;2023-06-14T04:39:20;100060.43;;;13.97;71.59
61436;BME280;47304;47.456;19.160;2023-06-14T04:41:46;100054.54;;;14.02;71.16
61436;BME280;47304;47.456;19.160;2023-06-14T04:44:13;100055.86;;;14.06;71.22
61436;BME280;47304;47.456;19.160;2023-06-14T04:46:40;100053.29;;;14.11;71.38
61436;BME280;47304;47.456;19.160;2023-06-14T04:49:07;100058.48;;;14.16;71.48
61436;BME280;47304;47.456;19.160;2023-06-14T04:51:33;100061.71;;;14.22;71.32
61436;BME280;47304;47.456;19.160;2023-06-14T04:54:00;100069.33;;;14.29;71.27
61436;BME280;47304;47.456;19.160;2023-06-14T04:56:27;100065.87;;;14.34;71.00
61436;BME280;47304;47.456;19.160;2023-06-14T04:58:53;100070.68;;;14.40;71.01
61436;BME280;47304;47.456;19.160;2023-06-14T05:01:20;100072.15;;;14.45;70.86
61436;BME280;47304;47.456;19.160;2023-06-14T05:03:47;100071.31;;;14.51;70.83
61436;BME280;47304;47.456;19.160;2023-06-14T05:06:13;100072.96;;;14.57;70.74
61436;BME280;47304;47.456;19.160;2023-06-14T05:08:40;100075.83;;;14.63;70.82
61436;BME280;47304;47.456;19.160;2023-06-14T05:11:07;100075.73;;;14.69;70.72
61436;BME280;47304;47.456;19.160;2023-06-14T05:13:33;100076.15;;;14.74;70.74
61436;BME280;47304;47.456;19.160;2023-06-14T05:16:00;100075.13;;;14.81;70.38
61436;BME280;47304;47.456;19.160;2023-06-14T05:18:26;100071.09;;;14.87;70.43
61436;BME280;47304;47.456;19.160;2023-06-14T05:20:53;100072.16;;;14.94;70.39
61436;BME280;47304;47.456;19.160;2023-06-14T05:23:19;100072.73;;;15.00;70.15
61436;BME280;47304;47.456;19.160;2023-06-14T05:25:46;100069.25;;;15.06;70.14
61436;BME280;47304;47.456;19.160;2023-06-14T05:28:13;100070.65;;;15.14;70.00
61436;BME280;47304;47.456;19.160;2023-06-14T05:30:40;100071.00;;;15.21;70.15
61436;BME280;47304;47.456;19.160;2023-06-14T05:33:07;100072.92;;;15.29;70.01
61436;BME280;47304;47.456;19.160;2023-06-14T05:35:34;100071.48;;;15.37;69.37
61436;BME280;47304;47.456;19.160;2023-06-14T05:38:00;100072.88;;;15.46;68.91
61436;BME280;47304;47.456;19.160;2023-06-14T05:40:27;100074.07;;;15.54;68.74
61436;BME280;47304;47.456;19.160;2023-06-14T05:42:54;100069.79;;;15.63;68.17
61436;BME280;47304;47.456;19.160;2023-06-14T05:45:20;100064.29;;;15.70;67.95
61436;BME280;47304;47.456;19.160;2023-06-14T05:47:47;100062.31;;;15.78;67.90
61436;BME280;47304;47.456;19.160;2023-06-14T05:50:13;100067.97;;;15.86;68.00
61436;BME280;47304;47.456;19.160;2023-06-14T05:52:40;100070.20;;;15.95;67.79
61436;BME280;47304;47.456;19.160;2023-06-14T05:55:07;100076.52;;;16.03;67.54
61436;BME280;47304;47.456;19.160;2023-06-14T05:57:34;100068.52;;;16.12;67.18
61436;BME280;47304;47.456;19.160;2023-06-14T06:00:00;100069.31;;;16.20;67.25
61436;BME280;47304;47.456;19.160;2023-06-14T06:02:27;100069.82;;;16.28;66.85
61436;BME280;47304;47.456;19.160;2023-06-14T06:04:53;100069.59;;;16.36;66.88
61436;BME280;47304;47.456;19.160;2023-06-14T06:07:20;100074.63;;;16.45;66.76
61436;BME280;47304;47.456;19.160;2023-06-14T06:09:47;100076.31;;;16.54;66.64
61436;BME280;47304;47.456;19.160;2023-06-14T06:12:13;100076.26;;;16.62;65.95
61436;BME280;47304;47.456;19.160;2023-06-14T06:14:40;100074.59;;;16.70;65.46
61436;BME280;47304;47.456;19.160;2023-06-14T06:17:06;100067.45;;;16.78;65.28
61436;BME280;47304;47.456;19.160;2023-06-14T06:19:33;100065.63;;;16.85;64.82
61436;BME280;47304;47.456;19.160;2023-06-14T06:21:59;100070.54;;;16.93;64.75
61436;BME280;47304;47.456;19.160;2023-06-14T06:24:26;100073.27;;;17.02;64.72
61436;BME280;47304;47.456;19.160;2023-06-14T06:26:53;100079.89;;;17.11;63.87
61436;BME280;47304;47.456;19.160;2023-06-14T06:29:19;100078.48;;;17.17;63.61
61436;BME280;47304;47.456;19.160;2023-06-14T06:31:46;100077.45;;;17.21;63.51
61436;BME280;47304;47.456;19.160;2023-06-14T06:34:12;100078.39;;;17.25;63.27
61436;BME280;47304;47.456;19.160;2023-06-14T06:36:39;100079.38;;;17.27;63.06
61436;BME280;47304;47.456;19.160;2023-06-14T06:39:06;100079.43;;;17.31;62.90
61436;BME280;47304;47.456;19.160;2023-06-14T06:41:32;100081.16;;;17.38;63.02
61436;BME280;47304;47.456;19.160;2023-06-14T06:43:59;100084.55;;;17.47;62.45
61436;BME280;47304;47.456;19.160;2023-06-14T06:46:25;100081.73;;;17.52;61.66
61436;BME280;47304;47.456;19.160;2023-06-14T06:48:52;100077.27;;;17.59;61.79
61436;BME280;47304;47.456;19.160;2023-06-14T06:51:18;100080.33;;;17.68;61.86
61436;BME280;47304;47.456;19.160;2023-06-14T06:53:52;100073.11;;;17.76;61.75
61436;BME280;47304;47.456;19.160;2023-06-14T06:56:20;100073.27;;;17.93;61.60
61436;BME280;47304;47.456;19.160;2023-06-14T06:58:46;100069.34;;;18.09;61.56
61436;BME280;47304;47.456;19.160;2023-06-14T07:01:13;100069.52;;;18.23;60.92
61436;BME280;47304;47.456;19.160;2023-06-14T07:03:40;100070.63;;;18.32;59.75
61436;BME280;47304;47.456;19.160;2023-06-14T07:06:06;100071.31;;;18.37;59.51
61436;BME280;47304;47.456;19.160;2023-06-14T07:08:33;100072.39;;;18.42;58.86
61436;BME280;47304;47.456;19.160;2023-06-14T07:11:00;100070.23;;;18.47;58.78
61436;BME280;47304;47.456;19.160;2023-06-14T07:13:26;100074.36;;;18.55;58.76
61436;BME280;47304;47.456;19.160;2023-06-14T07:15:58;100077.77;;;18.64;58.19
61436;BME280;47304;47.456;19.160;2023-06-14T07:18:25;100073.59;;;18.71;57.80
61436;BME280;47304;47.456;19.160;2023-06-14T07:20:52;100076.64;;;18.79;57.89
61436;BME280;47304;47.456;19.160;2023-06-14T07:23:18;100076.52;;;18.87;57.93
61436;BME280;47304;47.456;19.160;2023-06-14T07:25:45;100071.53;;;18.92;57.69
61436;BME280;47304;47.456;19.160;2023-06-14T07:28:12;100073.83;;;18.97;57.72
61436;BME280;47304;47.456;19.160;2023-06-14T07:30:38;100074.45;;;19.04;57.14
61436;BME280;47304;47.456;19.160;2023-06-14T07:33:05;100078.60;;;19.11;56.16
61436;BME280;47304;47.456;19.160;2023-06-14T07:35:31;100076.31;;;19.15;56.30
61436;BME280;47304;47.456;19.160;2023-06-14T07:37:58;100081.08;;;19.21;56.55
61436;BME280;47304;47.456;19.160;2023-06-14T07:40:24;100080.61;;;19.23;56.11
61436;BME280;47304;47.456;19.160;2023-06-14T07:42:51;100080.89;;;19.25;56.10
61436;BME280;47304;47.456;19.160;2023-06-14T07:45:18;100085.46;;;19.30;56.10
61436;BME280;47304;47.456;19.160;2023-06-14T07:47:45;100083.25;;;19.32;55.90
61436;BME280;47304;47.456;19.160;2023-06-14T07:50:11;100086.92;;;19.34;56.03
61436;BME280;47304;47.456;19.160;2023-06-14T07:52:38;100089.52;;;19.36;55.89
61436;BME280;47304;47.456;19.160;2023-06-14T07:55:07;100089.60;;;19.38;55.95
61436;BME280;47304;47.456;19.160;2023-06-14T07:57:34;100088.80;;;19.40;55.79
61436;BME280;47304;47.456;19.160;2023-06-14T08:00:00;100092.27;;;19.42;55.57
61436;BME280;47304;47.456;19.160;2023-06-14T08:02:27;100095.55;;;19.40;55.31
61436;BME280;47304;47.456;19.160;2023-06-14T08:04:54;100096.42;;;19.40;55.41
61436;BME280;47304;47.456;19.160;2023-06-14T08:07:20;100094.61;;;19.41;55.23
61436;BME280;47304;47.456;19.160;2023-06-14T08:09:47;100093.73;;;19.41;54.81
61436;BME280;47304;47.456;19.160;2023-06-14T08:12:13;100098.11;;;19.46;54.88
61436;BME280;47304;47.456;19.160;2023-06-14T08:14:41;100092.98;;;19.55;54.30
61436;BME280;47304;47.456;19.160;2023-06-14T08:17:08;100095.27;;;19.64;53.86
61436;BME280;47304;47.456;19.160;2023-06-14T08:19:35;100094.77;;;19.71;53.79
61436;BME280;47304;47.456;19.160;2023-06-14T08:22:01;100090.73;;;19.83;53.62
61436;BME280;47304;47.456;19.160;2023-06-14T08:24:28;100091.11;;;20.00;53.78
61436;BME280;47304;47.456;19.160;2023-06-14T08:26:55;100086.79;;;20.13;53.11
61436;BME280;47304;47.456;19.160;2023-06-14T08:29:22;100088.66;;;20.22;53.04
61436;BME280;47304;47.456;19.160;2023-06-14T08:31:48;100096.34;;;20.26;52.09
61436;BME280;47304;47.456;19.160;2023-06-14T08:34:15;100096.39;;;20.25;52.21
61436;BME280;47304;47.456;19.160;2023-06-14T08:36:42;100093.23;;;20.32;52.36
61436;BME280;47304;47.456;19.160;2023-06-14T08:39:08;100093.96;;;20.39;51.89
61436;BME280;47304;47.456;19.160;2023-06-14T08:41:35;100093.42;;;20.43;51.90
61436;BME280;47304;47.456;19.160;2023-06-14T08:44:02;100094.55;;;20.50;52.02
61436;BME280;47304;47.456;19.160;2023-06-14T08:46:32;100101.44;;;20.59;52.16
61436;BME280;47304;47.456;19.160;2023-06-14T08:49:01;100102.81;;;20.71;52.27
61436;BME280;47304;47.456;19.160;2023-06-14T08:51:30;100107.30;;;20.83;51.64
61436;BME280;47304;47.456;19.160;2023-06-14T08:53:57;100105.82;;;20.87;51.29
61436;BME280;47304;47.456;19.160;2023-06-14T08:56:31;100108.98;;;20.92;51.44
61436;BME280;47304;47.456;19.160;2023-06-14T08:58:58;100113.87;;;20.98;51.60
61436;BME280;47304;47.456;19.160;2023-06-14T09:01:24;100118.35;;;21.05;51.47
61436;BME280;47304;47.456;19.160;2023-06-14T09:03:51;100119.25;;;21.12;50.92
61436;BME280;47304;47.456;19.160;2023-06-14T09:06:18;100122.65;;;21.15;50.13
61436;BME280;47304;47.456;19.160;2023-06-14T09:08:46;100121.90;;;21.20;49.95
61436;BME280;47304;47.456;19.160;2023-06-14T09:11:14;100124.56;;;21.28;48.57
61436;BME280;47304;47.456;19.160;2023-06-14T09:13:41;100124.79;;;21.30;47.43
61436;BME280;47304;47.456;19.160;2023-06-14T09:16:08;100121.68;;;21.35;48.16
61436;BME280;47304;47.456;19.160;2023-06-14T09:18:36;100124.27;;;21.48;47.82
61436;BME280;47304;47.456;19.160;2023-06-14T09:21:05;100124.21;;;21.64;47.86
61436;BME280;47304;47.456;19.160;2023-06-14T09:23:39;100121.77;;;21.77;47.91
61436;BME280;47304;47.456;19.160;2023-06-14T09:28:43;100119.35;;;21.90;47.45
61436;BME280;47304;47.456;19.160;2023-06-14T09:31:11;100118.98;;;21.93;47.21
61436;BME280;47304;47.456;19.160;2023-06-14T09:33:38;100115.02;;;21.98;47.09
61436;BME280;47304;47.456;19.160;2023-06-14T09:36:11;100114.19;;;22.04;46.82
61436;BME280;47304;47.456;19.160;2023-06-14T09:38:40;100111.98;;;22.08;44.85
61436;BME280;47304;47.456;19.160;2023-06-14T09:41:07;100106.84;;;22.15;44.00
61436;BME280;47304;47.456;19.160;2023-06-14T09:43:33;100102.48;;;22.26;43.94
61436;BME280;47304;47.456;19.160;2023-06-14T09:46:03;100099.52;;;22.42;43.58
61436;BME280;47304;47.456;19.160;2023-06-14T09:48:31;100096.58;;;22.51;43.62
61436;BME280;47304;47.456;19.160;2023-06-14T09:50:57;100100.59;;;22.62;44.06
61436;BME280;47304;47.456;19.160;2023-06-14T09:53:24;100094.64;;;22.76;44.14
61436;BME280;47304;47.456;19.160;2023-06-14T09:55:52;100092.73;;;22.85;44.13
61436;BME280;47304;47.456;19.160;2023-06-14T09:58:23;100092.96;;;22.90;44.34
61436;BME280;47304;47.456;19.160;2023-06-14T10:00:50;100094.61;;;22.93;44.11
61436;BME280;47304;47.456;19.160;2023-06-14T10:03:23;100092.77;;;22.94;43.34
61436;BME280;47304;47.456;19.160;2023-06-14T10:05:52;100089.17;;;22.87;42.88
61436;BME280;47304;47.456;19.160;2023-06-14T10:08:20;100090.64;;;22.81;41.71
61436;BME280;47304;47.456;19.160;2023-06-14T10:10:50;100092.20;;;22.71;41.30
61436;BME280;47304;47.456;19.160;2023-06-14T10:13:17;100093.58;;;22.63;42.03
61436;BME280;47304;47.456;19.160;2023-06-14T10:18:45;100088.98;;;22.45;42.28
61436;BME280;47304;47.456;19.160;2023-06-14T10:24:44;100092.97;;;22.30;42.09
61436;BME280;47304;47.456;19.160;2023-06-14T10:27:13;100096.60;;;22.26;42.22
61436;BME280;47304;47.456;19.160;2023-06-14T10:32:20;100097.45;;;22.07;42.45
61436;BME280;47304;47.456;19.160;2023-06-14T10:34:54;100098.73;;;21.95;41.82
61436;BME280;47304;47.456;19.160;2023-06-14T10:37:21;100100.75;;;21.84;41.74
61436;BME280;47304;47.456;19.160;2023-06-14T10:39:49;100096.94;;;21.78;43.23
61436;BME280;47304;47.456;19.160;2023-06-14T10:42:16;100093.26;;;21.81;43.98
61436;BME280;47304;47.456;19.160;2023-06-14T10:44:49;100091.88;;;21.90;42.88
61436;BME280;47304;47.456;19.160;2023-06-14T10:50:03;100083.05;;;22.16;40.98
61436;BME280;47304;47.456;19.160;2023-06-14T10:52:33;100079.24;;;22.30;40.96
61436;BME280;47304;47.456;19.160;2023-06-14T10:55:16;100080.44;;;22.42;39.57
61436;BME280;47304;47.456;19.160;2023-06-14T10:57:49;100084.31;;;22.53;39.22
61436;BME280;47304;47.456;19.160;2023-06-14T11:00:20;100082.52;;;22.59;37.83
61436;BME280;47304;47.456;19.160;2023-06-14T11:05:58;100081.52;;;22.71;37.05
61436;BME280;47304;47.456;19.160;2023-06-14T11:11:00;100070.70;;;22.83;35.47
61436;BME280;47304;47.456;19.160;2023-06-14T11:13:38;100067.27;;;22.89;36.74
61436;BME280;47304;47.456;19.160;2023-06-14T11:16:13;100062.54;;;23.01;37.53
61436;BME280;47304;47.456;19.160;2023-06-14T11:18:41;100060.79;;;23.16;38.81
61436;BME280;47304;47.456;19.160;2023-06-14T11:21:07;100064.33;;;23.32;38.19
61436;BME280;47304;47.456;19.160;2023-06-14T11:23:35;100056.84;;;23.47;38.44
61436;BME280;47304;47.456;19.160;2023-06-14T11:26:01;100052.50;;;23.58;37.36
61436;BME280;47304;47.456;19.160;2023-06-14T11:28:38;100055.61;;;23.65;37.20
61436;BME280;47304;47.456;19.160;2023-06-14T11:31:05;100055.92;;;23.72;37.06
61436;BME280;47304;47.456;19.160;2023-06-14T11:33:32;100052.40;;;23.77;36.64
61436;BME280;47304;47.456;19.160;2023-06-14T11:35:58;100050.80;;;23.80;36.16
61436;BME280;47304;47.456;19.160;2023-06-14T11:38:27;100043.23;;;23.87;37.47
61436;BME280;47304;47.456;19.160;2023-06-14T11:40:58;100041.92;;;23.94;37.13
61436;BME280;47304;47.456;19.160;2023-06-14T11:43:25;100045.43;;;24.01;36.69
61436;BME280;47304;47.456;19.160;2023-06-14T11:45:52;100046.29;;;24.05;36.38
61436;BME280;47304;47.456;19.160;2023-06-14T11:48:41;100049.88;;;24.07;36.76
61436;BME280;47304;47.456;19.160;2023-06-14T11:51:08;100047.21;;;24.13;37.43
61436;BME280;47304;47.456;19.160;2023-06-14T11:53:34;100047.20;;;24.19;36.10
61436;BME280;47304;47.456;19.160;2023-06-14T11:56:01;100041.39;;;24.20;35.69
61436;BME280;47304;47.456;19.160;2023-06-14T11:58:29;100044.27;;;24.17;35.62
61436;BME280;47304;47.456;19.160;2023-06-14T12:00:56;100041.80;;;24.16;35.72
61436;BME280;47304;47.456;19.160;2023-06-14T12:03:23;100041.10;;;24.16;36.02
61436;BME280;47304;47.456;19.160;2023-06-14T12:05:50;100042.13;;;24.17;36.37
61436;BME280;47304;47.456;19.160;2023-06-14T12:08:17;100040.30;;;24.20;37.47
61436;BME280;47304;47.456;19.160;2023-06-14T12:10:44;100042.84;;;24.26;37.09
61436;BME280;47304;47.456;19.160;2023-06-14T12:13:11;100045.69;;;24.29;37.36
61436;BME280;47304;47.456;19.160;2023-06-14T12:15:38;100044.00;;;24.30;37.21
61436;BME280;47304;47.456;19.160;2023-06-14T12:18:07;100046.48;;;24.24;36.41
61436;BME280;47304;47.456;19.160;2023-06-14T12:20:34;100043.45;;;24.19;36.29
61436;BME280;47304;47.456;19.160;2023-06-14T12:23:03;100038.61;;;24.16;36.41
61436;BME280;47304;47.456;19.160;2023-06-14T12:25:32;100034.56;;;24.15;35.79
61436;BME280;47304;47.456;19.160;2023-06-14T12:28:04;100034.08;;;24.20;35.78
61436;BME280;47304;47.456;19.160;2023-06-14T12:30:31;100036.74;;;24.26;35.88
61436;BME280;47304;47.456;19.160;2023-06-14T12:32:57;100035.20;;;24.33;35.91
61436;BME280;47304;47.456;19.160;2023-06-14T12:35:24;100036.63;;;24.39;34.97
61436;BME280;47304;47.456;19.160;2023-06-14T12:37:51;100040.20;;;24.39;35.66
61436;BME280;47304;47.456;19.160;2023-06-14T12:40:21;100039.27;;;24.40;35.96
61436;BME280;47304;47.456;19.160;2023-06-14T12:42:47;100037.32;;;24.42;34.69
61436;BME280;47304;47.456;19.160;2023-06-14T12:45:14;100039.52;;;24.50;36.17
61436;BME280;47304;47.456;19.160;2023-06-14T12:47:41;100036.62;;;24.62;35.72
61436;BME280;47304;47.456;19.160;2023-06-14T12:50:08;100037.59;;;24.69;35.71
61436;BME280;47304;47.456;19.160;2023-06-14T12:52:34;100038.02;;;24.74;36.73
61436;BME280;47304;47.456;19.160;2023-06-14T12:55:04;100043.13;;;24.72;36.99
61436;BME280;47304;47.456;19.160;2023-06-14T12:57:31;100045.54;;;24.65;37.62
61436;BME280;47304;47.456;19.160;2023-06-14T13:00:00;100046.24;;;24.54;37.82
61436;BME280;47304;47.456;19.160;2023-06-14T13:02:28;100046.23;;;24.43;37.84
61436;BME280;47304;47.456;19.160;2023-06-14T13:04:54;100039.02;;;24.35;38.13